Accueil
METAR-TAF:

METAR-TAF

Aéroports :

Aéroport du Frioul-Vénétie julienne

Trieste / Ronchi dei Legionari, Italie

latitude: 45-49N, longitude: 013-29E, altitude: 12 m

Observation

Le bulletin a été fait il y a 23 minutes, à 18:20 UTC
Vent 3 kt de nord
Température 0°C
Humidité 100%
Pression 1026 hPa
Visibilité: 2200 m
brume

METAR: LIPQ 221820Z AUTO 36003KT 2200 BR NCD 00/M00 Q1026

Heure: 19:43 (18:43 UTC)

Prévision

Le bulletin a été fait il y a 1 heure et 43 minutes, à 17:00 UTC
Prévision valable du 22 à 18 UTC au 23 à 18 UTC
Vent 5 kt de direction variable
Visibilité 10 km ou plus
pas de nuages en-dessous de 1500 mètres et pas de cumulonimbus.
Temporairement
du 22 à 18 UTC au 23 à 08 UTC
Visibilité: 2000 m
Nuages fragmentés à une hauteur de 800 ft
bancs de brouillard

TAF: LIPQ 221700Z 2218/2318 VRB05KT CAVOK TEMPO 2218/2308 2000 BCFG BKN008

Observations et prévisions météorologiques de plus de 4000 aéroports (messages METAR et TAF).

Les stations disponibles sont représentées par des disques jaunes et rouges sur la carte.

Passer la souris dessus pour voir le nom de la station.

Cliquer dessus pour voir les observations et prévisions météorologiques.

Pour changer de carte: cliquez sur les boutons verts avec une croix noire pour zoomer, sur le bouton vert avec un tiret pour effectuer un zoom arrière, ou sur les flèches vertes pour les cartes adjacentes.


METAR-TAF: